Time;durP1;ratioP1;P1;durP2;ratioP2;P2;SDS_P1;SDS_P2;PMS_P1;PMS_P2;Temp;Humidity;BMP_temperature;BMP_pressure;BME280_temperature;BME280_humidity;BME280_pressure;Samples;Min_cycle;Max_cycle;Signal;HPM_P1;HPM_P2
2023/12/16 00:00:59;;;;;;;;;1.00;1.00;;;;;8.86;75.82;103760.06;5057482;28;10189;-68
2023/12/16 00:03:29;;;;;;;;;1.00;1.00;;;;;8.87;76.13;103763.63;5059813;28;10246;-71
2023/12/16 00:05:55;;;;;;;;;1.50;0.75;;;;;8.85;76.33;103768.25;5059063;28;10286;-70
2023/12/16 00:08:22;;;;;;;;;1.75;1.75;;;;;8.83;76.43;103767.50;5046681;28;10172;-68
2023/12/16 00:10:49;;;;;;;;;2.00;1.00;;;;;8.78;76.54;103762.47;5058321;28;10349;-68
2023/12/16 00:13:20;;;;;;;;;1.50;1.50;;;;;8.74;76.29;103763.66;5061899;28;11119;-69
2023/12/16 00:15:47;;;;;;;;;2.00;2.00;;;;;8.70;76.55;103754.09;5057954;28;10431;-69
2023/12/16 00:18:13;;;;;;;;;0.50;0.50;;;;;8.66;76.25;103758.81;5069580;28;10289;-69
2023/12/16 00:20:40;;;;;;;;;1.00;1.00;;;;;8.65;77.24;103758.94;5061616;28;10236;-69
2023/12/16 00:23:07;;;;;;;;;1.75;1.75;;;;;8.63;76.81;103755.53;5047214;28;10394;-68
2023/12/16 00:25:34;;;;;;;;;1.75;1.75;;;;;8.60;77.20;103761.97;5061514;28;10333;-69
2023/12/16 00:28:00;;;;;;;;;2.50;0.00;;;;;8.61;77.24;103765.50;5068403;28;11045;-70
2023/12/16 00:30:27;;;;;;;;;2.25;2.25;;;;;8.60;77.33;103758.44;5068236;28;10369;-68
2023/12/16 00:32:53;;;;;;;;;1.25;1.00;;;;;8.61;77.38;103757.44;5067854;28;10379;-71
2023/12/16 00:35:20;;;;;;;;;1.00;1.00;;;;;8.59;77.42;103762.94;5060564;28;10421;-69
2023/12/16 00:37:46;;;;;;;;;4.00;2.25;;;;;8.55;77.61;103768.66;5066292;28;10304;-69
2023/12/16 00:40:13;;;;;;;;;2.25;1.00;;;;;8.54;76.92;103762.38;5054196;28;10531;-67
2023/12/16 00:42:39;;;;;;;;;3.00;2.25;;;;;8.54;77.76;103761.53;5067777;28;10346;-69
2023/12/16 00:45:07;;;;;;;;;2.00;2.00;;;;;8.53;77.74;103763.38;5063790;28;10391;-69
2023/12/16 00:47:33;;;;;;;;;2.50;2.00;;;;;8.54;77.46;103753.47;5065103;28;10212;-68
2023/12/16 00:50:00;;;;;;;;;3.50;2.00;;;;;8.54;77.14;103757.00;5063508;28;10266;-69
2023/12/16 00:52:26;;;;;;;;;2.00;1.50;;;;;8.53;77.76;103751.78;5067861;28;10519;-69
2023/12/16 00:54:54;;;;;;;;;2.50;2.50;;;;;8.49;77.84;103751.13;5063820;28;10209;-71
2023/12/16 00:57:20;;;;;;;;;5.00;2.00;;;;;8.49;77.50;103744.91;5070189;28;10391;-67
2023/12/16 00:59:47;;;;;;;;;1.50;1.50;;;;;8.47;77.38;103741.44;5065437;28;10465;-71
2023/12/16 01:02:13;;;;;;;;;1.00;1.00;;;;;8.45;77.66;103741.56;5069197;28;10431;-70
2023/12/16 01:04:41;;;;;;;;;2.50;1.50;;;;;8.38;77.91;103738.47;5069790;28;10273;-69
2023/12/16 01:07:08;;;;;;;;;1.50;1.50;;;;;8.40;78.05;103741.91;5069493;28;10536;-69
2023/12/16 01:09:35;;;;;;;;;1.75;1.00;;;;;8.38;78.50;103738.47;5061038;28;10498;-68
2023/12/16 01:12:02;;;;;;;;;2.00;2.00;;;;;8.38;77.85;103751.03;5066661;28;10423;-69
2023/12/16 01:14:28;;;;;;;;;2.25;2.00;;;;;8.38;78.56;103756.38;5065900;28;11067;-71
2023/12/16 01:16:55;;;;;;;;;2.00;1.00;;;;;8.39;78.32;103752.75;5069941;28;10654;-69
2023/12/16 01:19:21;;;;;;;;;1.00;1.00;;;;;8.35;77.91;103741.34;5057515;28;10424;-69
2023/12/16 01:21:48;;;;;;;;;5.75;2.00;;;;;8.35;78.62;103745.88;5063327;28;10347;-69
2023/12/16 01:24:14;;;;;;;;;1.50;1.50;;;;;8.33;78.22;103743.25;5061530;28;10431;-69
2023/12/16 01:26:41;;;;;;;;;0.75;0.75;;;;;8.32;78.30;103738.88;5049057;28;10345;-69
2023/12/16 01:29:07;;;;;;;;;1.50;1.00;;;;;8.30;78.51;103747.97;5068039;28;10400;-69
2023/12/16 01:31:34;;;;;;;;;2.00;2.00;;;;;8.23;78.71;103750.25;5063043;28;10294;-69
2023/12/16 01:34:00;;;;;;;;;1.00;0.75;;;;;8.18;78.71;103749.69;5075380;28;10398;-70
2023/12/16 01:36:27;;;;;;;;;3.00;1.50;;;;;8.11;79.05;103756.47;5058106;28;10294;-69
2023/12/16 01:38:53;;;;;;;;;2.00;2.00;;;;;8.14;78.79;103748.19;5068768;28;10345;-69
2023/12/16 01:41:20;;;;;;;;;1.00;1.00;;;;;8.16;78.88;103755.19;5068876;28;10998;-67
2023/12/16 01:43:47;;;;;;;;;2.75;1.75;;;;;8.14;78.65;103761.63;5067450;28;10282;-68
2023/12/16 01:46:14;;;;;;;;;3.00;2.00;;;;;8.08;79.34;103762.91;5064260;28;10368;-68
2023/12/16 01:48:42;;;;;;;;;1.50;1.00;;;;;8.07;79.08;103754.97;5067663;28;10438;-68
2023/12/16 01:51:09;;;;;;;;;2.50;2.00;;;;;8.00;79.29;103764.41;5050862;28;10630;-68
2023/12/16 01:53:37;;;;;;;;;2.50;1.00;;;;;7.97;80.14;103759.25;5063800;28;10556;-70
2023/12/16 01:56:05;;;;;;;;;3.50;2.50;;;;;7.99;79.63;103762.69;5061793;28;10412;-68
2023/12/16 01:58:32;;;;;;;;;2.00;1.00;;;;;7.98;79.77;103772.56;5067561;28;10554;-69
2023/12/16 02:00:59;;;;;;;;;1.00;1.00;;;;;7.98;79.50;103769.91;5067033;28;10344;-68
2023/12/16 02:03:28;;;;;;;;;1.00;0.50;;;;;7.98;79.31;103771.69;5067745;28;10565;-71
2023/12/16 02:05:57;;;;;;;;;1.00;0.25;;;;;7.97;79.69;103768.16;5070159;28;10605;-69
2023/12/16 02:08:24;;;;;;;;;2.00;1.00;;;;;7.88;80.07;103766.09;5056845;28;10437;-68
2023/12/16 02:10:50;;;;;;;;;1.75;1.50;;;;;7.88;79.90;103764.28;5067265;28;10411;-69
2023/12/16 02:13:18;;;;;;;;;1.75;1.25;;;;;7.88;79.95;103750.00;5069976;28;10506;-70
2023/12/16 02:15:45;;;;;;;;;2.75;2.75;;;;;7.86;80.23;103743.91;5050781;28;10450;-70
2023/12/16 02:18:12;;;;;;;;;4.50;4.50;;;;;7.81;80.25;103744.19;5049335;28;11358;-67
2023/12/16 02:20:38;;;;;;;;;2.00;2.00;;;;;7.79;80.37;103740.78;5064666;28;10438;-69
2023/12/16 02:23:13;;;;;;;;;3.50;3.00;;;;;7.83;80.79;103744.97;5067774;28;10642;-71
2023/12/16 02:25:42;;;;;;;;;3.25;3.25;;;;;7.79;80.87;103743.47;5064523;28;10660;-67
2023/12/16 02:28:10;;;;;;;;;2.00;1.00;;;;;7.80;80.77;103739.81;5067445;28;10564;-69
2023/12/16 02:30:37;;;;;;;;;3.00;2.50;;;;;7.84;81.05;103741.31;5067153;28;10524;-70
2023/12/16 02:33:03;;;;;;;;;6.00;2.50;;;;;7.81;80.65;103740.66;5064126;28;11247;-69
2023/12/16 02:35:30;;;;;;;;;1.50;1.50;;;;;7.82;81.31;103737.91;5059841;28;10433;-68
2023/12/16 02:37:56;;;;;;;;;2.50;2.50;;;;;7.85;80.84;103744.84;5053395;28;10503;-69
2023/12/16 02:40:23;;;;;;;;;6.00;4.25;;;;;7.83;80.84;103742.28;5052187;28;10600;-71
2023/12/16 02:42:49;;;;;;;;;3.00;3.00;;;;;7.79;81.04;103740.78;5055709;28;10583;-69
2023/12/16 02:45:17;;;;;;;;;4.00;4.00;;;;;7.81;81.56;103746.03;5070077;28;11423;-67
2023/12/16 02:47:43;;;;;;;;;3.00;3.00;;;;;7.76;81.37;103743.66;5055277;28;10538;-69
2023/12/16 02:50:10;;;;;;;;;3.25;2.50;;;;;7.76;82.44;103746.34;5066199;28;10646;-69
2023/12/16 02:52:36;;;;;;;;;4.50;3.00;;;;;7.77;81.50;103742.69;5072804;28;10688;-67
2023/12/16 02:55:03;;;;;;;;;5.75;4.25;;;;;7.78;81.99;103740.88;5075846;28;10880;-69
2023/12/16 02:57:29;;;;;;;;;4.00;3.50;;;;;7.76;82.26;103730.25;5071499;28;10927;-69
2023/12/16 02:59:56;;;;;;;;;5.25;2.00;;;;;7.73;82.06;103727.78;5065095;28;11490;-72
2023/12/16 03:02:22;;;;;;;;;6.00;3.50;;;;;7.72;82.44;103734.09;5064274;28;11576;-67
2023/12/16 03:04:49;;;;;;;;;5.50;4.00;;;;;7.70;82.60;103730.69;5070811;28;10800;-69
2023/12/16 03:07:15;;;;;;;;;7.00;3.00;;;;;7.68;82.73;103724.56;5049014;28;11535;-68
2023/12/16 03:09:42;;;;;;;;;3.50;3.50;;;;;7.68;82.57;103725.41;5071371;28;10698;-68
2023/12/16 03:12:08;;;;;;;;;6.00;5.50;;;;;7.65;83.12;103717.56;5071189;28;10896;-71
2023/12/16 03:14:37;;;;;;;;;6.50;5.50;;;;;7.67;83.00;103714.81;5065989;28;10926;-69
2023/12/16 03:17:04;;;;;;;;;7.50;6.50;;;;;7.64;83.42;103701.59;5066267;28;10722;-71
2023/12/16 03:19:31;;;;;;;;;4.25;4.25;;;;;7.63;83.80;103705.25;5060808;28;10939;-68
2023/12/16 03:21:57;;;;;;;;;4.50;4.50;;;;;7.67;83.17;103707.63;5066838;28;10728;-68
2023/12/16 03:24:24;;;;;;;;;5.50;5.50;;;;;7.66;83.75;103697.88;5066875;28;11333;-69
2023/12/16 03:26:50;;;;;;;;;7.50;7.50;;;;;7.59;84.03;103693.03;5066403;28;10649;-69
2023/12/16 03:29:17;;;;;;;;;7.00;6.25;;;;;7.55;84.12;103694.19;5066132;28;10806;-69
2023/12/16 03:31:43;;;;;;;;;8.50;5.75;;;;;7.55;84.18;103697.72;5069551;28;10862;-68
2023/12/16 03:34:10;;;;;;;;;7.50;6.75;;;;;7.54;84.54;103693.34;5063177;28;10795;-69
2023/12/16 03:36:36;;;;;;;;;8.50;7.50;;;;;7.52;84.73;103686.34;5070620;28;10840;-68
2023/12/16 03:39:04;;;;;;;;;10.25;6.00;;;;;7.50;84.69;103689.16;5067148;28;10715;-68
2023/12/16 03:41:30;;;;;;;;;12.25;10.75;;;;;7.40;84.91;103696.94;5068161;28;10724;-68
2023/12/16 03:43:57;;;;;;;;;8.00;7.00;;;;;7.42;85.39;103692.34;5063689;28;10860;-69
2023/12/16 03:46:23;;;;;;;;;7.50;7.00;;;;;7.47;85.04;103685.81;5068269;28;11831;-70
2023/12/16 03:48:50;;;;;;;;;1.25;1.25;;;;;7.51;84.95;103698.03;5068616;28;10831;-67
2023/12/16 03:51:16;;;;;;;;;9.25;9.00;;;;;7.51;85.34;103692.69;5062661;28;10797;-67
2023/12/16 03:53:43;;;;;;;;;9.00;9.00;;;;;7.50;85.76;103694.50;5059932;28;10978;-69
2023/12/16 03:56:09;;;;;;;;;9.25;7.00;;;;;7.50;85.31;103699.00;5066113;28;11055;-69
2023/12/16 03:58:36;;;;;;;;;7.25;7.25;;;;;7.51;84.98;103708.78;5065328;28;10814;-68
2023/12/16 04:01:04;;;;;;;;;10.25;9.50;;;;;7.42;85.44;103708.44;5068717;28;10975;-68
2023/12/16 04:03:31;;;;;;;;;9.00;7.00;;;;;7.48;85.52;103701.78;5061097;28;10807;-66
2023/12/16 04:05:57;;;;;;;;;7.25;7.25;;;;;7.49;85.41;103706.16;5065703;28;10709;-69
2023/12/16 04:08:24;;;;;;;;;9.50;9.00;;;;;7.50;85.35;103699.00;5066981;28;11550;-69
2023/12/16 04:10:50;;;;;;;;;8.75;8.75;;;;;7.51;85.87;103703.41;5064813;28;10844;-69
2023/12/16 04:13:17;;;;;;;;;12.75;10.25;;;;;7.51;85.91;103703.41;5067538;28;11575;-68
2023/12/16 04:15:43;;;;;;;;;11.25;10.25;;;;;7.44;85.33;103690.41;5068820;28;10839;-68
2023/12/16 04:18:10;;;;;;;;;10.00;9.00;;;;;7.38;86.05;103698.88;5062096;28;11017;-69
2023/12/16 04:20:37;;;;;;;;;10.50;9.50;;;;;7.36;86.65;103697.25;5059593;28;10897;-67
2023/12/16 04:23:03;;;;;;;;;11.00;8.00;;;;;7.37;86.31;103697.16;5052348;28;10897;-68
2023/12/16 04:25:30;;;;;;;;;10.50;9.50;;;;;7.36;86.32;103691.88;5059726;28;10996;-69
2023/12/16 04:27:56;;;;;;;;;8.00;8.00;;;;;7.33;86.35;103692.97;5068646;28;10907;-68
2023/12/16 04:30:23;;;;;;;;;9.00;6.50;;;;;7.35;86.72;103688.34;5065879;28;10912;-69
2023/12/16 04:32:49;;;;;;;;;14.00;10.25;;;;;7.35;86.80;103692.84;5068430;28;10885;-69
2023/12/16 04:35:16;;;;;;;;;10.75;10.50;;;;;7.30;86.62;103692.31;5056571;28;11773;-68
2023/12/16 04:37:42;;;;;;;;;12.50;9.50;;;;;7.33;86.88;103694.75;5069615;28;10797;-68
2023/12/16 04:40:09;;;;;;;;;12.25;10.50;;;;;7.34;86.65;103696.50;5059258;28;11008;-68
2023/12/16 04:42:36;;;;;;;;;7.50;7.50;;;;;7.31;87.14;103702.91;5052885;28;10854;-69
2023/12/16 04:45:02;;;;;;;;;11.75;8.75;;;;;7.29;86.98;103699.50;5051674;28;10836;-69
2023/12/16 04:47:29;;;;;;;;;12.50;9.00;;;;;7.31;86.78;103710.09;5063902;28;10797;-69
2023/12/16 04:49:55;;;;;;;;;11.00;10.00;;;;;7.34;87.06;103717.94;5056532;28;10854;-69
2023/12/16 04:52:22;;;;;;;;;11.50;9.50;;;;;7.31;87.55;103710.09;5064578;28;10763;-70
2023/12/16 04:54:48;;;;;;;;;9.00;8.50;;;;;7.32;87.70;103712.66;5066877;28;11091;-68
2023/12/16 04:57:15;;;;;;;;;10.00;9.00;;;;;7.32;86.83;103710.00;5065688;28;10803;-68
2023/12/16 04:59:41;;;;;;;;;11.50;9.50;;;;;7.32;87.51;103706.44;5060749;28;10880;-70
2023/12/16 05:02:08;;;;;;;;;7.00;7.00;;;;;7.30;87.30;103713.75;5068458;28;10961;-64
2023/12/16 05:04:34;;;;;;;;;10.00;9.00;;;;;7.28;87.67;103712.97;5079431;28;10842;-69
2023/12/16 05:07:01;;;;;;;;;9.25;9.25;;;;;7.30;87.74;103703.03;5064007;28;10921;-69
2023/12/16 05:09:27;;;;;;;;;9.75;9.75;;;;;7.24;87.65;103684.69;5068146;28;10907;-68
2023/12/16 05:11:54;;;;;;;;;8.00;7.50;;;;;7.27;87.51;103698.72;5058632;28;10830;-69
2023/12/16 05:14:20;;;;;;;;;8.75;8.75;;;;;7.27;88.06;103695.19;5067978;28;10915;-68
2023/12/16 05:16:47;;;;;;;;;7.00;7.00;;;;;7.26;87.68;103693.47;5064638;28;10865;-68
2023/12/16 05:19:14;;;;;;;;;10.25;9.25;;;;;7.28;88.17;103699.59;5068186;28;10873;-69
2023/12/16 05:21:40;;;;;;;;;14.00;10.00;;;;;7.21;87.90;103698.25;5061958;28;10982;-69
2023/12/16 05:24:07;;;;;;;;;13.00;10.00;;;;;7.20;88.10;103702.78;5063297;28;11026;-68
2023/12/16 05:26:33;;;;;;;;;9.00;9.00;;;;;7.17;88.56;103693.13;5055345;28;10908;-69
2023/12/16 05:29:00;;;;;;;;;8.25;8.00;;;;;7.19;87.93;103693.88;5047939;28;10823;-69
2023/12/16 05:31:26;;;;;;;;;10.25;8.75;;;;;7.18;88.52;103691.31;5061895;28;10999;-69
2023/12/16 05:33:53;;;;;;;;;10.00;9.00;;;;;7.18;88.69;103692.16;5068794;28;10950;-68
2023/12/16 05:36:19;;;;;;;;;13.25;9.75;;;;;7.17;88.33;103697.59;5065343;28;10893;-68
2023/12/16 05:38:46;;;;;;;;;13.00;13.00;;;;;7.18;89.11;103691.31;5066862;28;11031;-68
2023/12/16 05:41:14;;;;;;;;;13.00;8.00;;;;;7.18;89.15;103697.53;5065884;28;11096;-69
2023/12/16 05:43:40;;;;;;;;;7.75;7.75;;;;;7.18;89.05;103699.34;5058982;28;10868;-69
2023/12/16 05:46:07;;;;;;;;;9.75;8.00;;;;;7.19;89.34;103693.88;5060987;28;11018;-67
2023/12/16 05:48:35;;;;;;;;;9.00;8.75;;;;;7.12;88.73;103689.03;5066624;28;10871;-68
2023/12/16 05:51:04;;;;;;;;;6.75;6.75;;;;;7.14;88.93;103692.47;5067641;28;11761;-67
2023/12/16 05:53:33;;;;;;;;;9.75;7.50;;;;;7.12;89.33;103687.19;5060427;28;11106;-70
2023/12/16 05:56:00;;;;;;;;;9.50;8.00;;;;;7.08;89.36;103677.66;5053544;28;11034;-67
2023/12/16 05:58:26;;;;;;;;;7.00;7.00;;;;;7.09;89.54;103687.44;5060673;28;11092;-69
2023/12/16 06:00:52;;;;;;;;;8.75;6.00;;;;;7.09;89.22;103678.50;5066472;28;11044;-68
2023/12/16 06:03:19;;;;;;;;;8.00;6.75;;;;;7.10;89.84;103685.59;5064065;28;10948;-69
2023/12/16 06:05:45;;;;;;;;;10.00;7.50;;;;;7.10;89.10;103699.84;5067153;28;11599;-67
2023/12/16 06:08:12;;;;;;;;;7.50;6.25;;;;;7.13;89.72;103696.97;5057448;28;11026;-68
2023/12/16 06:10:38;;;;;;;;;9.75;9.00;;;;;7.07;89.33;103696.50;5059875;28;10955;-69
2023/12/16 06:13:05;;;;;;;;;9.25;8.25;;;;;7.07;89.41;103699.19;5071338;28;10790;-69
2023/12/16 06:15:31;;;;;;;;;11.50;10.50;;;;;7.05;90.26;103707.34;5070527;28;10801;-69
2023/12/16 06:18:02;;;;;;;;;11.00;8.75;;;;;7.04;90.03;103705.59;5053509;28;10789;-67
2023/12/16 06:20:30;;;;;;;;;8.00;7.25;;;;;7.10;90.10;103717.75;5060700;28;11008;-69
2023/12/16 06:22:56;;;;;;;;;10.00;9.00;;;;;7.07;89.99;103715.25;5069149;28;10776;-68
2023/12/16 06:25:23;;;;;;;;;9.25;8.00;;;;;7.04;90.31;103710.94;5071628;28;11113;-68
2023/12/16 06:27:50;;;;;;;;;10.75;10.00;;;;;7.02;89.40;103709.34;5055845;28;10986;-69
2023/12/16 06:30:16;;;;;;;;;7.50;7.50;;;;;7.02;90.21;103712.88;5062022;28;11034;-67
2023/12/16 06:32:43;;;;;;;;;10.00;8.50;;;;;7.00;90.08;103706.75;5068512;28;11099;-68
2023/12/16 06:35:09;;;;;;;;;14.75;10.50;;;;;6.98;89.97;103707.84;5064387;28;11005;-68
2023/12/16 06:37:36;;;;;;;;;11.25;9.25;;;;;6.98;89.67;103710.53;5057938;28;11114;-67
2023/12/16 06:40:03;;;;;;;;;13.50;10.25;;;;;7.02;89.73;103709.34;5051274;28;10897;-68
2023/12/16 06:42:30;;;;;;;;;14.25;7.00;;;;;7.02;90.42;103712.88;5055571;28;11056;-68
2023/12/16 06:44:56;;;;;;;;;10.50;10.50;;;;;7.03;90.19;103708.38;5058116;28;11005;-69
2023/12/16 06:47:23;;;;;;;;;10.25;7.75;;;;;7.04;90.33;103718.13;5068229;28;11124;-67
2023/12/16 06:49:49;;;;;;;;;12.25;8.50;;;;;7.02;90.44;103706.69;5068611;28;11060;-68
2023/12/16 06:52:16;;;;;;;;;7.75;6.00;;;;;7.05;90.23;103717.16;5068531;28;11002;-68
2023/12/16 06:54:42;;;;;;;;;11.25;9.00;;;;;7.00;90.26;103712.13;5062094;28;10989;-69
2023/12/16 06:57:09;;;;;;;;;9.00;7.25;;;;;6.90;90.44;103719.91;5067299;28;11162;-67
2023/12/16 06:59:35;;;;;;;;;6.50;6.50;;;;;6.94;90.61;103716.06;5067557;28;10993;-67
2023/12/16 07:02:02;;;;;;;;;9.00;7.00;;;;;6.98;91.52;103710.53;5067365;28;11517;-68
2023/12/16 07:04:28;;;;;;;;;10.25;6.00;;;;;7.00;90.65;103714.78;5068048;28;10813;-68
2023/12/16 07:06:55;;;;;;;;;8.75;8.75;;;;;6.96;90.98;103705.25;5067454;28;12059;-69
2023/12/16 07:09:21;;;;;;;;;6.00;6.00;;;;;7.01;90.92;103712.97;5068803;28;11826;-69
2023/12/16 07:11:48;;;;;;;;;6.00;6.00;;;;;7.00;90.96;103705.91;5065985;28;10964;-69
2023/12/16 07:14:14;;;;;;;;;9.75;8.25;;;;;6.94;91.52;103705.34;5056601;28;11066;-68
2023/12/16 07:16:41;;;;;;;;;10.00;7.00;;;;;6.93;91.06;103710.81;5065762;28;10880;-68
2023/12/16 07:19:08;;;;;;;;;10.25;9.00;;;;;6.99;91.35;103709.56;5070373;28;10900;-69
2023/12/16 07:21:34;;;;;;;;;7.25;6.00;;;;;7.01;91.80;103712.97;5060039;28;10990;-69
2023/12/16 07:24:01;;;;;;;;;5.75;5.75;;;;;6.99;91.40;103713.09;5067496;28;11581;-69
2023/12/16 07:26:28;;;;;;;;;5.50;5.50;;;;;7.01;91.83;103715.66;5052282;28;10869;-68
2023/12/16 07:28:54;;;;;;;;;9.75;7.00;;;;;7.01;92.25;103721.00;5065443;28;10867;-66
2023/12/16 07:31:21;;;;;;;;;10.00;6.50;;;;;6.98;91.60;103715.88;5070052;28;10885;-69
2023/12/16 07:33:49;;;;;;;;;5.75;5.75;;;;;7.01;91.59;103712.97;5070427;28;10829;-71
2023/12/16 07:36:15;;;;;;;;;8.00;6.75;;;;;6.97;91.86;103709.66;5062799;28;10867;-68
2023/12/16 07:38:42;;;;;;;;;10.00;6.50;;;;;6.95;91.95;103706.22;5057713;28;10764;-67
2023/12/16 07:41:08;;;;;;;;;5.25;5.25;;;;;6.98;92.15;103718.56;5065513;28;10986;-68
2023/12/16 07:43:35;;;;;;;;;9.00;5.00;;;;;6.96;92.09;103723.13;5069037;28;10865;-69
2023/12/16 07:46:04;;;;;;;;;7.25;6.00;;;;;7.00;92.68;103725.50;5066494;28;10922;-69
2023/12/16 07:48:30;;;;;;;;;6.00;5.00;;;;;7.04;92.58;103728.84;5059252;28;10897;-70
2023/12/16 07:50:57;;;;;;;;;8.25;5.25;;;;;7.07;92.24;103726.84;5066641;28;10862;-69
2023/12/16 07:53:23;;;;;;;;;11.00;9.00;;;;;7.05;91.92;103727.88;5062435;28;10881;-68
2023/12/16 07:55:50;;;;;;;;;5.00;5.00;;;;;7.03;91.92;103735.19;5067549;28;10965;-69
2023/12/16 07:58:16;;;;;;;;;4.00;4.00;;;;;6.99;92.34;103728.28;5068136;28;10933;-69
2023/12/16 08:00:43;;;;;;;;;8.00;5.25;;;;;7.03;92.51;103730.66;5056116;28;10891;-68
2023/12/16 08:03:10;;;;;;;;;8.00;5.50;;;;;7.07;92.39;103742.03;5063638;28;11402;-69
2023/12/16 08:05:39;;;;;;;;;9.00;7.75;;;;;7.10;92.68;103742.72;5059581;28;10814;-69
2023/12/16 08:08:06;;;;;;;;;5.50;5.00;;;;;7.14;93.01;103752.25;5061896;28;10837;-69
2023/12/16 08:10:32;;;;;;;;;6.50;4.25;;;;;7.18;92.53;103747.56;5067498;28;10915;-69
2023/12/16 08:12:58;;;;;;;;;7.50;5.25;;;;;7.24;92.68;103749.81;5064911;28;10670;-69
2023/12/16 08:15:25;;;;;;;;;5.25;5.00;;;;;7.27;92.59;103746.97;5064399;28;10890;-69
2023/12/16 08:17:51;;;;;;;;;7.00;6.25;;;;;7.31;92.37;103747.63;5048140;28;10855;-68
2023/12/16 08:20:18;;;;;;;;;6.00;5.25;;;;;7.32;92.39;103741.28;5069170;28;10765;-70
2023/12/16 08:22:45;;;;;;;;;7.25;7.25;;;;;7.35;91.90;103741.94;5062783;28;10877;-70
2023/12/16 08:25:11;;;;;;;;;5.75;3.00;;;;;7.39;92.70;103748.81;5062192;28;10874;-69
2023/12/16 08:27:38;;;;;;;;;5.25;3.50;;;;;7.41;92.46;103748.72;5066430;28;10814;-70
2023/12/16 08:30:05;;;;;;;;;9.50;6.75;;;;;7.44;92.48;103745.84;5060810;28;10721;-70
2023/12/16 08:32:32;;;;;;;;;8.00;5.25;;;;;7.43;92.49;103741.44;5053461;28;10848;-68
2023/12/16 08:34:59;;;;;;;;;6.00;6.00;;;;;7.47;91.86;103750.13;5064519;28;10813;-69
2023/12/16 08:37:26;;;;;;;;;8.75;6.00;;;;;7.51;93.35;103762.38;5060255;28;10637;-70
2023/12/16 08:39:52;;;;;;;;;8.25;6.75;;;;;7.53;92.41;103769.34;5066760;28;10804;-69
2023/12/16 08:42:19;;;;;;;;;6.00;5.75;;;;;7.52;92.57;103769.44;5060478;28;10709;-68
2023/12/16 08:44:46;;;;;;;;;7.00;7.00;;;;;7.52;92.75;103770.31;5054882;28;10835;-69
2023/12/16 08:47:13;;;;;;;;;8.00;5.00;;;;;7.56;93.05;103773.63;5064418;28;10708;-69
2023/12/16 08:49:43;;;;;;;;;3.00;3.00;;;;;7.60;92.41;103773.31;5059675;28;10459;-71
2023/12/16 08:52:10;;;;;;;;;7.50;5.50;;;;;7.64;92.80;103776.66;5066707;28;11485;-70
2023/12/16 08:54:41;;;;;;;;;8.50;6.50;;;;;7.63;92.88;103780.31;5066268;28;10687;-71
2023/12/16 08:57:07;;;;;;;;;11.75;6.00;;;;;7.63;92.92;103785.69;5067532;28;10715;-71
2023/12/16 08:59:34;;;;;;;;;11.00;8.00;;;;;7.63;92.67;103775.81;5055673;28;10673;-71
2023/12/16 09:02:02;;;;;;;;;7.25;6.00;;;;;7.69;93.15;103779.88;5060204;28;10709;-70
2023/12/16 09:04:28;;;;;;;;;9.50;8.00;;;;;7.69;92.99;103790.63;5065551;28;10584;-71
2023/12/16 09:06:55;;;;;;;;;9.50;6.75;;;;;7.68;93.07;103792.44;5067464;28;11254;-70
2023/12/16 09:09:21;;;;;;;;;9.00;9.00;;;;;7.72;93.14;103797.59;5062246;28;10589;-71
2023/12/16 09:11:48;;;;;;;;;7.00;7.00;;;;;7.75;93.44;103809.00;5050735;28;10668;-71
2023/12/16 09:14:14;;;;;;;;;7.50;6.00;;;;;7.76;93.66;103805.34;5060123;28;10740;-72
2023/12/16 09:16:42;;;;;;;;;7.25;6.25;;;;;7.80;93.56;103817.56;5059177;28;10722;-69
2023/12/16 09:19:11;;;;;;;;;7.25;6.00;;;;;7.82;93.62;103807.63;5058797;28;11313;-70
2023/12/16 09:21:38;;;;;;;;;12.75;8.00;;;;;7.80;93.35;103817.56;5045112;28;10665;-71
2023/12/16 09:24:05;;;;;;;;;9.75;6.75;;;;;7.82;93.62;103812.97;5061840;28;10905;-70
2023/12/16 09:26:32;;;;;;;;;6.00;6.00;;;;;7.83;93.38;103820.06;5066374;28;10731;-71
2023/12/16 09:28:59;;;;;;;;;9.00;6.75;;;;;7.83;93.90;103820.06;5063113;28;10793;-70
2023/12/16 09:31:26;;;;;;;;;11.50;7.25;;;;;7.84;93.50;103827.13;5067050;28;10833;-71
2023/12/16 09:33:53;;;;;;;;;7.75;5.25;;;;;7.86;93.92;103822.53;5066123;28;10811;-70
2023/12/16 09:36:19;;;;;;;;;6.00;6.00;;;;;7.90;94.27;103824.06;5067070;28;10726;-70
2023/12/16 09:38:46;;;;;;;;;5.25;5.25;;;;;7.95;94.52;103823.75;5060490;28;10611;-70
2023/12/16 09:41:21;;;;;;;;;7.50;5.25;;;;;7.99;94.08;103819.88;5063328;28;10620;-71
2023/12/16 09:43:52;;;;;;;;;13.25;9.00;;;;;8.01;93.84;103812.56;5060860;28;10676;-70
2023/12/16 09:46:29;;;;;;;;;10.75;8.00;;;;;8.01;94.35;103820.63;5058866;28;11498;-71
2023/12/16 09:48:56;;;;;;;;;6.50;6.00;;;;;8.05;94.58;103806.03;5066349;28;10745;-71
2023/12/16 09:51:24;;;;;;;;;8.25;5.75;;;;;8.09;94.56;103822.78;5051003;28;10740;-71
2023/12/16 09:53:54;;;;;;;;;20.50;16.25;;;;;8.05;94.66;103827.50;5051997;28;10636;-70
2023/12/16 09:56:21;;;;;;;;;10.75;10.00;;;;;8.12;95.58;103834.19;5071120;28;11157;-70
2023/12/16 09:58:51;;;;;;;;;16.00;13.50;;;;;8.14;96.10;103828.69;5066450;28;10984;-71
2023/12/16 10:01:18;;;;;;;;;15.75;15.00;;;;;8.18;96.69;103833.78;5057211;28;10837;-70
2023/12/16 10:03:46;;;;;;;;;17.50;17.25;;;;;8.28;97.01;103838.50;5065459;28;11016;-69
2023/12/16 10:06:13;;;;;;;;;21.50;19.00;;;;;8.24;97.96;103828.94;5052732;28;10828;-69
2023/12/16 10:08:40;;;;;;;;;19.00;18.75;;;;;8.27;98.98;103842.16;5054341;28;10882;-70
2023/12/16 10:11:07;;;;;;;;;22.50;20.00;;;;;8.35;98.80;103842.50;5052403;28;11048;-69
2023/12/16 10:13:56;;;;;;;;;24.00;19.75;;;;;8.34;99.05;103841.59;5055960;28;10846;-70
2023/12/16 10:16:24;;;;;;;;;21.50;17.75;;;;;8.34;99.39;103836.22;5069057;28;10962;-68
2023/12/16 10:18:52;;;;;;;;;19.00;18.00;;;;;8.40;100.00;103835.00;5056859;28;10816;-69
2023/12/16 10:21:27;;;;;;;;;21.75;19.75;;;;;8.41;100.00;103825.97;5066660;28;11094;-70
2023/12/16 10:23:59;;;;;;;;;21.25;20.00;;;;;8.38;100.00;103837.78;5057209;28;11018;-69
2023/12/16 10:26:28;;;;;;;;;19.50;16.00;;;;;8.42;100.00;103835.72;5068706;28;11275;-69
2023/12/16 10:28:55;;;;;;;;;23.75;19.25;;;;;8.43;100.00;103837.47;5061177;28;10895;-68
2023/12/16 10:31:22;;;;;;;;;18.75;16.25;;;;;8.42;100.00;103825.84;5062288;28;10996;-69
2023/12/16 10:33:49;;;;;;;;;20.75;19.50;;;;;8.39;100.00;103826.09;5070416;28;10898;-71
2023/12/16 10:36:15;;;;;;;;;23.75;18.50;;;;;8.41;100.00;103821.47;5071586;28;10865;-69
2023/12/16 10:38:42;;;;;;;;;17.25;16.25;;;;;8.48;100.00;103821.03;5069492;28;11776;-69
2023/12/16 10:41:09;;;;;;;;;25.25;20.00;;;;;8.42;100.00;103820.47;5069391;28;11339;-69
2023/12/16 10:43:37;;;;;;;;;16.75;14.00;;;;;8.40;100.00;103814.38;5069761;28;10815;-68
2023/12/16 10:46:06;;;;;;;;;14.25;11.50;;;;;8.44;100.00;103815.03;5064648;28;10646;-69
2023/12/16 10:48:35;;;;;;;;;18.00;15.50;;;;;8.47;100.00;103811.25;5057821;28;10703;-69
2023/12/16 10:51:04;;;;;;;;;19.75;16.50;;;;;8.41;100.00;103808.03;5067164;28;10928;-70
2023/12/16 10:53:41;;;;;;;;;18.00;15.50;;;;;8.39;100.00;103798.41;5062544;28;10866;-69
2023/12/16 10:56:17;;;;;;;;;16.50;16.50;;;;;8.44;100.00;103796.25;5064561;28;11064;-69
2023/12/16 10:58:58;;;;;;;;;16.50;14.00;;;;;8.48;100.00;103804.94;5067652;28;10884;-69
2023/12/16 11:01:29;;;;;;;;;18.00;15.00;;;;;8.45;100.00;103797.09;5060941;28;10801;-69
2023/12/16 11:04:09;;;;;;;;;17.25;16.00;;;;;8.37;100.00;103790.44;5061650;28;10689;-69
2023/12/16 11:06:43;;;;;;;;;16.00;15.00;;;;;8.33;100.00;103788.03;5068744;28;10751;-68
2023/12/16 11:09:12;;;;;;;;;10.75;9.75;;;;;8.37;100.00;103790.44;5066745;28;10760;-69
2023/12/16 11:11:40;;;;;;;;;14.75;11.50;;;;;8.37;100.00;103790.44;5081953;28;10693;-66
2023/12/16 11:14:08;;;;;;;;;11.75;10.75;;;;;8.38;100.00;103784.09;5058390;28;10956;-70
2023/12/16 11:16:51;;;;;;;;;10.25;10.25;;;;;8.34;100.00;103776.31;5068506;28;10623;-69
2023/12/16 11:19:22;;;;;;;;;14.00;13.00;;;;;8.35;100.00;103770.03;5065525;28;10625;-70
2023/12/16 11:21:50;;;;;;;;;16.50;14.25;;;;;8.37;100.00;103768.94;5061774;28;10589;-69
2023/12/16 11:24:16;;;;;;;;;12.25;11.00;;;;;8.42;100.00;103766.78;5064515;28;10710;-70
2023/12/16 11:26:48;;;;;;;;;18.50;16.00;;;;;8.44;100.00;103758.66;5064099;28;10521;-70
2023/12/16 11:29:19;;;;;;;;;16.25;12.00;;;;;8.45;100.00;103764.88;5060008;28;10640;-71